Time;durP1;ratioP1;P1;durP2;ratioP2;P2;SDS_P1;SDS_P2;PMS_P1;PMS_P2;Temp;Humidity;BMP_temperature;BMP_pressure;BME280_temperature;BME280_humidity;BME280_pressure;Samples;Min_cycle;Max_cycle;Signal;HPM_P1;HPM_P2
2023/12/03 00:00:47;;;;;;;18.02;12.50;;;;;;;;;;5019799;28;20227;-65
2023/12/03 00:03:15;;;;;;;19.25;12.80;;;;;;;;;;5004945;28;20222;-66
2023/12/03 00:05:44;;;;;;;18.40;13.05;;;;;;;;;;5027826;28;20505;-65
2023/12/03 00:08:12;;;;;;;20.90;14.38;;;;;;;;;;5034794;28;20225;-66
2023/12/03 00:10:40;;;;;;;22.52;13.45;;;;;;;;;;5035231;28;20241;-64
2023/12/03 00:13:08;;;;;;;22.38;13.88;;;;;;;;;;5035015;28;20223;-63
2023/12/03 00:15:38;;;;;;;20.23;12.52;;;;;;;;;;5020768;28;20182;-63
2023/12/03 00:18:06;;;;;;;18.75;13.90;;;;;;;;;;5033197;28;20262;-64
2023/12/03 00:20:35;;;;;;;25.58;13.68;;;;;;;;;;5015465;28;20237;-63
2023/12/03 00:23:03;;;;;;;25.05;15.00;;;;;;;;;;5015041;28;20195;-64
2023/12/03 00:25:31;;;;;;;23.65;15.07;;;;;;;;;;5015064;28;20234;-63
2023/12/03 00:27:59;;;;;;;22.45;13.55;;;;;;;;;;5015384;28;20194;-64
2023/12/03 00:30:28;;;;;;;22.45;14.45;;;;;;;;;;5031624;28;20226;-65
2023/12/03 00:32:57;;;;;;;19.20;13.40;;;;;;;;;;5015418;28;20183;-64
2023/12/03 00:35:26;;;;;;;29.40;16.50;;;;;;;;;;5026928;28;20229;-65
2023/12/03 00:37:54;;;;;;;22.40;14.25;;;;;;;;;;5018634;28;20259;-64
2023/12/03 00:40:22;;;;;;;23.73;14.57;;;;;;;;;;5034330;28;20275;-64
2023/12/03 00:42:50;;;;;;;18.25;13.15;;;;;;;;;;5026844;28;20229;-65
2023/12/03 00:45:18;;;;;;;24.67;14.70;;;;;;;;;;5014575;28;20246;-63
2023/12/03 00:47:47;;;;;;;22.90;14.95;;;;;;;;;;5015082;28;20190;-64
2023/12/03 00:50:17;;;;;;;24.65;13.77;;;;;;;;;;5026137;28;20233;-65
2023/12/03 00:52:45;;;;;;;25.55;14.35;;;;;;;;;;5016517;28;20191;-65
2023/12/03 00:55:13;;;;;;;28.40;15.50;;;;;;;;;;5015053;28;20214;-66
2023/12/03 00:57:42;;;;;;;24.08;15.23;;;;;;;;;;5016398;28;20206;-65
2023/12/03 01:00:10;;;;;;;27.42;14.75;;;;;;;;;;5028731;28;20182;-63
2023/12/03 01:02:38;;;;;;;27.52;15.50;;;;;;;;;;5034128;28;20214;-63
2023/12/03 01:05:07;;;;;;;30.95;16.73;;;;;;;;;;5023535;28;20226;-65
2023/12/03 01:07:39;;;;;;;25.83;14.93;;;;;;;;;;5034407;28;20239;-65
2023/12/03 01:10:08;;;;;;;23.70;14.70;;;;;;;;;;5024253;28;20187;-64
2023/12/03 01:12:36;;;;;;;27.25;15.32;;;;;;;;;;5034365;28;20210;-67
2023/12/03 01:15:05;;;;;;;24.80;15.02;;;;;;;;;;5026256;28;20251;-65
2023/12/03 01:17:33;;;;;;;26.33;15.52;;;;;;;;;;5033987;28;20239;-64
2023/12/03 01:20:02;;;;;;;27.45;16.48;;;;;;;;;;5033969;28;20218;-63
2023/12/03 01:22:30;;;;;;;31.55;15.55;;;;;;;;;;5037992;28;20202;-64
2023/12/03 01:25:00;;;;;;;28.40;16.60;;;;;;;;;;5037047;28;20225;-64
2023/12/03 01:27:28;;;;;;;34.58;16.48;;;;;;;;;;5037818;28;20206;-66
2023/12/03 01:29:56;;;;;;;26.58;15.68;;;;;;;;;;5021698;28;20197;-64
2023/12/03 01:32:25;;;;;;;29.92;17.33;;;;;;;;;;5022052;28;20214;-64
2023/12/03 01:34:53;;;;;;;21.77;14.38;;;;;;;;;;5028454;28;20212;-65
2023/12/03 01:37:21;;;;;;;31.13;16.23;;;;;;;;;;5037563;28;20198;-64
2023/12/03 01:39:49;;;;;;;29.55;16.77;;;;;;;;;;5034424;28;20194;-64
2023/12/03 01:42:19;;;;;;;29.80;17.50;;;;;;;;;;5018162;28;20261;-64
2023/12/03 01:44:48;;;;;;;30.45;17.42;;;;;;;;;;5004279;28;20231;-64
2023/12/03 01:47:16;;;;;;;30.27;17.10;;;;;;;;;;5014251;28;20194;-64
2023/12/03 01:49:45;;;;;;;26.30;15.77;;;;;;;;;;5017864;28;20234;-63
2023/12/03 01:52:15;;;;;;;31.85;17.20;;;;;;;;;;5019430;28;20218;-65
2023/12/03 01:54:44;;;;;;;28.73;16.88;;;;;;;;;;5032837;28;20235;-65
2023/12/03 01:57:13;;;;;;;31.45;18.45;;;;;;;;;;5036987;28;20252;-64
2023/12/03 01:59:43;;;;;;;31.58;16.73;;;;;;;;;;5029063;28;20245;-66
2023/12/03 02:02:11;;;;;;;27.67;15.13;;;;;;;;;;5028305;28;20197;-65
2023/12/03 02:04:39;;;;;;;31.27;16.10;;;;;;;;;;5034176;28;20265;-65
2023/12/03 02:07:07;;;;;;;29.08;15.95;;;;;;;;;;5001022;28;20230;-63
2023/12/03 02:09:36;;;;;;;26.35;17.17;;;;;;;;;;5020398;28;20217;-65
2023/12/03 02:12:05;;;;;;;26.17;15.73;;;;;;;;;;5029053;28;20186;-63
2023/12/03 02:14:33;;;;;;;26.85;16.50;;;;;;;;;;5035659;28;20230;-63
2023/12/03 02:17:03;;;;;;;31.75;19.00;;;;;;;;;;5005298;28;20183;-64
2023/12/03 02:19:32;;;;;;;24.08;14.85;;;;;;;;;;5028544;28;20198;-65
2023/12/03 02:22:00;;;;;;;29.42;17.55;;;;;;;;;;5016309;28;20217;-63
2023/12/03 02:24:29;;;;;;;28.05;16.38;;;;;;;;;;5020995;28;20212;-62
2023/12/03 02:26:58;;;;;;;29.80;17.10;;;;;;;;;;5027027;28;20223;-63
2023/12/03 02:29:26;;;;;;;28.38;16.42;;;;;;;;;;5016681;28;20208;-64
2023/12/03 02:31:54;;;;;;;28.77;16.98;;;;;;;;;;5026217;28;20197;-63
2023/12/03 02:34:22;;;;;;;33.08;17.60;;;;;;;;;;5037065;28;20213;-65
2023/12/03 02:36:51;;;;;;;30.70;18.30;;;;;;;;;;5022890;28;20171;-63
2023/12/03 02:39:19;;;;;;;32.00;18.58;;;;;;;;;;5019586;28;20184;-63
2023/12/03 02:41:49;;;;;;;29.00;16.35;;;;;;;;;;5036486;28;20236;-64
2023/12/03 02:44:17;;;;;;;31.42;16.95;;;;;;;;;;5027820;28;20218;-64
2023/12/03 02:46:45;;;;;;;33.80;17.77;;;;;;;;;;5028517;28;20241;-63
2023/12/03 02:49:13;;;;;;;31.25;17.35;;;;;;;;;;5035100;28;20267;-65
2023/12/03 02:51:42;;;;;;;28.98;16.13;;;;;;;;;;5033907;28;20212;-64
2023/12/03 02:54:10;;;;;;;27.60;16.55;;;;;;;;;;5020345;28;20202;-63
2023/12/03 02:56:38;;;;;;;28.30;17.80;;;;;;;;;;5036911;28;20233;-64
2023/12/03 02:59:08;;;;;;;27.27;16.25;;;;;;;;;;5036878;28;20202;-63
2023/12/03 03:01:36;;;;;;;28.52;16.10;;;;;;;;;;5036498;28;20214;-63
2023/12/03 03:04:06;;;;;;;31.65;17.50;;;;;;;;;;5036170;28;20271;-64
2023/12/03 03:06:35;;;;;;;29.98;17.08;;;;;;;;;;5030942;28;20245;-63
2023/12/03 03:09:03;;;;;;;40.15;18.38;;;;;;;;;;5017438;28;20256;-64
2023/12/03 03:11:31;;;;;;;33.40;19.02;;;;;;;;;;5028988;28;20202;-63
2023/12/03 03:13:59;;;;;;;33.15;18.55;;;;;;;;;;5026703;28;20210;-63
2023/12/03 03:16:29;;;;;;;36.63;17.75;;;;;;;;;;5036728;28;20261;-63
2023/12/03 03:18:57;;;;;;;33.25;17.50;;;;;;;;;;5036621;28;20317;-64
2023/12/03 03:21:26;;;;;;;30.85;17.40;;;;;;;;;;5030743;28;20221;-65
2023/12/03 03:23:54;;;;;;;33.72;19.52;;;;;;;;;;5016858;28;20203;-63
2023/12/03 03:26:22;;;;;;;33.75;18.48;;;;;;;;;;5024059;28;20240;-63
2023/12/03 03:28:50;;;;;;;33.50;17.90;;;;;;;;;;5020425;28;20213;-64
2023/12/03 03:31:19;;;;;;;35.72;19.05;;;;;;;;;;5027538;28;20226;-64
2023/12/03 03:33:48;;;;;;;33.92;18.55;;;;;;;;;;5019320;28;20222;-64
2023/12/03 03:36:17;;;;;;;29.80;17.13;;;;;;;;;;5030385;28;20202;-63
2023/12/03 03:38:45;;;;;;;32.28;17.73;;;;;;;;;;5033858;28;20229;-64
2023/12/03 03:41:13;;;;;;;33.08;17.92;;;;;;;;;;5034896;28;20250;-63
2023/12/03 03:43:42;;;;;;;37.45;18.95;;;;;;;;;;5017916;28;20237;-63
2023/12/03 03:46:11;;;;;;;39.58;21.30;;;;;;;;;;5033197;28;20225;-63
2023/12/03 03:48:39;;;;;;;36.70;19.38;;;;;;;;;;5034969;28;20202;-64
2023/12/03 03:51:09;;;;;;;36.78;19.80;;;;;;;;;;5017853;28;20233;-64
2023/12/03 03:53:37;;;;;;;35.45;19.10;;;;;;;;;;5015307;28;20229;-64
2023/12/03 03:56:09;;;;;;;35.95;19.33;;;;;;;;;;5018838;28;20195;-63
2023/12/03 03:58:37;;;;;;;37.33;18.17;;;;;;;;;;5035834;28;20193;-63
2023/12/03 04:01:06;;;;;;;41.20;21.35;;;;;;;;;;5024470;28;20191;-64
2023/12/03 04:03:34;;;;;;;30.92;18.20;;;;;;;;;;5025470;28;20218;-64
2023/12/03 04:06:02;;;;;;;35.00;19.08;;;;;;;;;;5019657;28;20246;-64
2023/12/03 04:08:32;;;;;;;36.92;18.98;;;;;;;;;;5022038;28;20249;-63
2023/12/03 04:11:03;;;;;;;34.67;18.30;;;;;;;;;;5006075;28;20200;-63
2023/12/03 04:13:31;;;;;;;36.55;19.20;;;;;;;;;;5016373;28;20186;-62
2023/12/03 04:15:59;;;;;;;37.17;17.73;;;;;;;;;;5033321;28;20243;-64
2023/12/03 04:18:28;;;;;;;30.60;18.73;;;;;;;;;;5020715;28;20255;-63
2023/12/03 04:20:56;;;;;;;38.78;20.40;;;;;;;;;;5034909;28;20222;-63
2023/12/03 04:23:24;;;;;;;35.85;18.77;;;;;;;;;;5029329;28;20206;-64
2023/12/03 04:25:54;;;;;;;32.35;17.98;;;;;;;;;;5033924;28;20255;-64
2023/12/03 04:28:22;;;;;;;38.60;18.73;;;;;;;;;;5007640;28;20203;-64
2023/12/03 04:30:51;;;;;;;40.65;19.08;;;;;;;;;;5025096;28;20237;-64
2023/12/03 04:33:19;;;;;;;34.10;19.35;;;;;;;;;;5019309;28;20185;-64
2023/12/03 04:35:47;;;;;;;35.95;18.73;;;;;;;;;;5031008;28;20225;-63
2023/12/03 04:38:15;;;;;;;35.97;18.65;;;;;;;;;;5034382;28;20240;-64
2023/12/03 04:40:43;;;;;;;38.78;19.27;;;;;;;;;;5035098;28;20263;-64
2023/12/03 04:43:13;;;;;;;34.17;18.98;;;;;;;;;;5032033;28;20272;-65
2023/12/03 04:45:42;;;;;;;32.78;17.88;;;;;;;;;;5018651;28;20234;-65
2023/12/03 04:48:10;;;;;;;33.55;18.42;;;;;;;;;;5014869;28;20199;-65
2023/12/03 04:50:38;;;;;;;31.88;17.50;;;;;;;;;;5032237;28;20208;-64
2023/12/03 04:53:06;;;;;;;33.22;19.40;;;;;;;;;;5029692;28;20205;-64
2023/12/03 04:55:34;;;;;;;31.83;18.38;;;;;;;;;;5015086;28;20252;-65
2023/12/03 04:58:02;;;;;;;33.15;17.45;;;;;;;;;;5015177;28;20285;-63
2023/12/03 05:00:32;;;;;;;35.83;18.42;;;;;;;;;;5015108;28;20187;-64
2023/12/03 05:03:01;;;;;;;33.33;17.33;;;;;;;;;;5014829;28;20190;-65
2023/12/03 05:05:29;;;;;;;36.60;18.15;;;;;;;;;;5014750;28;20195;-65
2023/12/03 05:07:57;;;;;;;28.73;17.77;;;;;;;;;;5029388;28;20190;-64
2023/12/03 05:10:25;;;;;;;27.92;15.63;;;;;;;;;;5032350;28;20225;-64
2023/12/03 05:12:54;;;;;;;32.63;17.45;;;;;;;;;;5016666;28;20179;-65
2023/12/03 05:15:22;;;;;;;30.42;17.08;;;;;;;;;;5022294;28;20239;-64
2023/12/03 05:17:51;;;;;;;26.02;15.70;;;;;;;;;;5022749;28;20213;-63
2023/12/03 05:20:20;;;;;;;28.63;17.00;;;;;;;;;;5026790;28;20179;-63
2023/12/03 05:22:51;;;;;;;33.67;16.63;;;;;;;;;;5031865;28;20229;-65
2023/12/03 05:25:19;;;;;;;29.08;15.55;;;;;;;;;;5034373;28;20177;-64
2023/12/03 05:27:48;;;;;;;27.58;16.02;;;;;;;;;;5018174;28;20238;-64
2023/12/03 05:30:18;;;;;;;26.85;15.70;;;;;;;;;;5014667;28;20211;-64
2023/12/03 05:32:46;;;;;;;28.58;16.05;;;;;;;;;;5015546;28;20327;-63
2023/12/03 05:35:16;;;;;;;27.00;14.93;;;;;;;;;;5019298;28;20199;-64
2023/12/03 05:37:44;;;;;;;27.15;14.27;;;;;;;;;;5034439;28;20182;-64
2023/12/03 05:40:12;;;;;;;31.55;16.35;;;;;;;;;;5019291;28;20258;-64
2023/12/03 05:42:40;;;;;;;31.10;15.65;;;;;;;;;;5015107;28;20173;-63
2023/12/03 05:45:09;;;;;;;27.35;15.98;;;;;;;;;;5027611;28;20206;-64
2023/12/03 05:47:37;;;;;;;24.83;15.20;;;;;;;;;;5017913;28;20218;-63
2023/12/03 05:50:06;;;;;;;27.98;15.68;;;;;;;;;;5019091;28;20210;-64
2023/12/03 05:52:35;;;;;;;33.63;16.70;;;;;;;;;;5028533;28;20203;-63
2023/12/03 05:55:03;;;;;;;28.00;16.13;;;;;;;;;;5033149;28;20202;-65
2023/12/03 05:57:31;;;;;;;29.27;17.27;;;;;;;;;;5029026;28;20188;-64
2023/12/03 05:59:59;;;;;;;31.67;16.92;;;;;;;;;;5024265;28;20186;-64
2023/12/03 06:02:27;;;;;;;32.42;17.23;;;;;;;;;;5018256;28;20220;-64
2023/12/03 06:04:55;;;;;;;29.38;15.90;;;;;;;;;;5036530;28;20671;-66
2023/12/03 06:07:23;;;;;;;31.67;18.67;;;;;;;;;;5037310;28;20221;-63
2023/12/03 06:09:53;;;;;;;30.83;17.17;;;;;;;;;;5037171;28;20247;-64
2023/12/03 06:12:21;;;;;;;39.45;18.98;;;;;;;;;;5010425;28;20191;-63
2023/12/03 06:14:49;;;;;;;36.03;17.25;;;;;;;;;;4997921;28;20203;-64
2023/12/03 06:17:17;;;;;;;28.70;16.00;;;;;;;;;;4998293;28;20210;-64
2023/12/03 06:19:45;;;;;;;38.17;19.20;;;;;;;;;;4997263;28;20183;-64
2023/12/03 06:22:13;;;;;;;30.95;15.93;;;;;;;;;;4998402;28;20191;-64
2023/12/03 06:24:42;;;;;;;35.15;17.77;;;;;;;;;;4998114;28;20203;-63
2023/12/03 06:27:11;;;;;;;36.70;16.73;;;;;;;;;;4998240;28;20242;-63
2023/12/03 06:29:39;;;;;;;31.58;18.05;;;;;;;;;;4997454;28;20219;-66
2023/12/03 06:32:07;;;;;;;32.97;16.73;;;;;;;;;;4997984;28;20203;-64
2023/12/03 06:34:35;;;;;;;35.25;16.90;;;;;;;;;;4998213;28;20187;-64
2023/12/03 06:37:04;;;;;;;32.63;15.90;;;;;;;;;;5012675;28;20206;-64
2023/12/03 06:39:32;;;;;;;36.65;18.02;;;;;;;;;;5025507;28;20175;-64
2023/12/03 06:42:01;;;;;;;35.03;17.42;;;;;;;;;;5017199;28;20238;-65
2023/12/03 06:44:31;;;;;;;33.00;18.13;;;;;;;;;;5025510;28;20234;-65
2023/12/03 06:46:59;;;;;;;35.05;18.10;;;;;;;;;;5017239;28;20254;-64
2023/12/03 06:49:27;;;;;;;35.67;18.58;;;;;;;;;;5017481;28;20179;-66
2023/12/03 06:51:56;;;;;;;37.35;18.05;;;;;;;;;;5003218;28;20215;-65
2023/12/03 06:54:25;;;;;;;33.75;18.35;;;;;;;;;;4997773;28;20201;-64
2023/12/03 06:56:53;;;;;;;38.65;18.40;;;;;;;;;;5009163;28;20229;-65
2023/12/03 06:59:21;;;;;;;35.63;18.40;;;;;;;;;;5020871;28;20194;-67
2023/12/03 07:01:51;;;;;;;29.90;16.67;;;;;;;;;;5036186;28;20248;-66
2023/12/03 07:04:19;;;;;;;38.13;18.55;;;;;;;;;;5024256;28;20303;-64
2023/12/03 07:06:47;;;;;;;35.10;18.92;;;;;;;;;;5036257;28;20229;-65
2023/12/03 07:09:15;;;;;;;32.00;17.70;;;;;;;;;;5024553;28;20217;-65
2023/12/03 07:11:44;;;;;;;33.15;16.20;;;;;;;;;;5033849;28;20278;-64
2023/12/03 07:14:12;;;;;;;35.42;17.40;;;;;;;;;;5036028;28;20209;-65
2023/12/03 07:16:40;;;;;;;32.00;17.40;;;;;;;;;;5031981;28;20183;-64
2023/12/03 07:19:10;;;;;;;32.10;17.20;;;;;;;;;;5029060;28;20189;-64
2023/12/03 07:21:38;;;;;;;35.90;17.90;;;;;;;;;;5024508;28;20210;-65
2023/12/03 07:24:07;;;;;;;32.33;17.95;;;;;;;;;;5016854;28;20203;-65
2023/12/03 07:26:35;;;;;;;31.50;17.45;;;;;;;;;;5025412;28;20213;-64
2023/12/03 07:29:04;;;;;;;37.53;18.85;;;;;;;;;;5087996;28;20186;-65
2023/12/03 07:31:32;;;;;;;30.27;17.13;;;;;;;;;;5018801;28;20225;-64
2023/12/03 07:34:00;;;;;;;37.05;17.60;;;;;;;;;;5002615;28;20238;-66
2023/12/03 07:36:30;;;;;;;35.83;18.83;;;;;;;;;;5035559;28;20245;-65
2023/12/03 07:38:58;;;;;;;37.38;18.55;;;;;;;;;;5026418;28;20175;-65
2023/12/03 07:41:27;;;;;;;35.58;17.40;;;;;;;;;;5029100;28;20218;-67
2023/12/03 07:43:55;;;;;;;30.10;16.30;;;;;;;;;;5035628;28;20202;-65
2023/12/03 07:46:23;;;;;;;34.15;17.58;;;;;;;;;;5031057;28;20179;-66
2023/12/03 07:48:52;;;;;;;33.60;17.33;;;;;;;;;;5019143;28;20265;-64
2023/12/03 07:51:20;;;;;;;35.70;17.58;;;;;;;;;;5013496;28;20206;-65
2023/12/03 07:53:49;;;;;;;38.38;22.65;;;;;;;;;;5010756;28;20241;-65
2023/12/03 07:56:18;;;;;;;38.17;17.98;;;;;;;;;;4997119;28;20190;-64
2023/12/03 07:58:46;;;;;;;47.17;26.67;;;;;;;;;;4996925;28;20678;-65
2023/12/03 08:01:14;;;;;;;30.75;18.17;;;;;;;;;;4996981;28;20190;-64
2023/12/03 08:03:42;;;;;;;32.58;17.30;;;;;;;;;;5004915;28;20225;-65
2023/12/03 08:06:11;;;;;;;34.60;21.33;;;;;;;;;;4996852;28;20207;-64
2023/12/03 08:08:39;;;;;;;32.95;18.48;;;;;;;;;;4996447;28;20238;-64
2023/12/03 08:11:09;;;;;;;38.83;18.65;;;;;;;;;;5010189;28;20211;-64
2023/12/03 08:13:37;;;;;;;50.00;27.25;;;;;;;;;;5009961;28;20206;-65
2023/12/03 08:16:06;;;;;;;41.85;21.48;;;;;;;;;;5016357;28;20195;-64
2023/12/03 08:18:34;;;;;;;35.05;17.77;;;;;;;;;;5015333;28;20195;-66
2023/12/03 08:21:02;;;;;;;27.35;17.20;;;;;;;;;;4996558;28;20215;-65
2023/12/03 08:23:30;;;;;;;39.67;19.85;;;;;;;;;;5080250;28;20196;-64
2023/12/03 08:25:58;;;;;;;27.35;15.50;;;;;;;;;;5118766;28;20186;-65
2023/12/03 08:28:28;;;;;;;33.50;17.70;;;;;;;;;;5036627;28;20265;-64
2023/12/03 08:30:56;;;;;;;30.02;15.73;;;;;;;;;;5118807;28;20209;-66
2023/12/03 08:33:25;;;;;;;29.35;15.70;;;;;;;;;;5107670;28;20187;-65
2023/12/03 08:35:53;;;;;;;25.98;15.25;;;;;;;;;;5015600;28;20210;-64
2023/12/03 08:38:21;;;;;;;35.80;16.60;;;;;;;;;;5015470;28;20226;-64
2023/12/03 08:40:49;;;;;;;27.20;16.10;;;;;;;;;;5006246;28;20325;-64
2023/12/03 08:43:18;;;;;;;26.67;15.25;;;;;;;;;;5007746;28;20210;-63
2023/12/03 08:45:47;;;;;;;29.58;16.98;;;;;;;;;;5006350;28;20191;-63
2023/12/03 08:48:16;;;;;;;25.40;15.63;;;;;;;;;;5015317;28;20271;-64
2023/12/03 08:50:44;;;;;;;23.73;15.75;;;;;;;;;;4999692;28;20256;-62
2023/12/03 08:53:12;;;;;;;27.58;15.45;;;;;;;;;;5006888;28;20183;-63
2023/12/03 08:55:40;;;;;;;26.77;16.17;;;;;;;;;;5023660;28;20191;-64
2023/12/03 08:58:09;;;;;;;21.63;14.25;;;;;;;;;;5000810;28;20184;-63
2023/12/03 09:00:37;;;;;;;25.33;14.50;;;;;;;;;;5008708;28;20183;-64
2023/12/03 09:03:07;;;;;;;24.92;14.85;;;;;;;;;;5015402;28;20187;-63
2023/12/03 09:05:35;;;;;;;23.50;14.40;;;;;;;;;;5015335;28;20211;-63
2023/12/03 09:08:03;;;;;;;22.35;13.25;;;;;;;;;;5002064;28;20227;-63
2023/12/03 09:10:32;;;;;;;23.02;13.43;;;;;;;;;;4997938;28;20217;-63
2023/12/03 09:13:00;;;;;;;18.58;12.32;;;;;;;;;;5028483;28;20222;-63
2023/12/03 09:15:28;;;;;;;18.20;12.55;;;;;;;;;;5030138;28;20226;-63
2023/12/03 09:17:56;;;;;;;22.52;13.60;;;;;;;;;;5008125;28;20222;-63
2023/12/03 09:20:27;;;;;;;19.88;13.05;;;;;;;;;;4999803;28;20223;-63
2023/12/03 09:22:55;;;;;;;18.63;13.15;;;;;;;;;;4995206;28;20222;-63
2023/12/03 09:25:23;;;;;;;20.67;13.60;;;;;;;;;;5009101;28;20183;-64
2023/12/03 09:27:51;;;;;;;18.70;12.82;;;;;;;;;;5000247;28;20199;-63
2023/12/03 09:30:20;;;;;;;18.98;13.20;;;;;;;;;;4996670;28;20242;-65
2023/12/03 09:32:49;;;;;;;21.02;13.48;;;;;;;;;;4995940;28;20286;-66
2023/12/03 09:35:20;;;;;;;18.25;12.75;;;;;;;;;;4998151;28;20198;-66
2023/12/03 09:37:50;;;;;;;21.55;12.65;;;;;;;;;;5005970;28;20199;-66
2023/12/03 09:40:21;;;;;;;19.40;13.43;;;;;;;;;;5026386;28;20235;-66
2023/12/03 09:42:51;;;;;;;19.70;12.60;;;;;;;;;;4996633;28;20222;-66
2023/12/03 09:45:27;;;;;;;19.98;14.55;;;;;;;;;;4991681;28;20282;-66
2023/12/03 09:47:58;;;;;;;21.98;13.93;;;;;;;;;;5060024;28;20199;-66
2023/12/03 09:50:27;;;;;;;20.20;13.70;;;;;;;;;;5006099;28;20195;-66
2023/12/03 09:52:58;;;;;;;18.77;13.32;;;;;;;;;;5003033;28;20205;-66
2023/12/03 09:55:26;;;;;;;24.38;14.50;;;;;;;;;;5005631;28;20202;-67
2023/12/03 09:57:55;;;;;;;22.20;14.02;;;;;;;;;;5000775;28;20206;-66
2023/12/03 10:00:24;;;;;;;20.98;14.05;;;;;;;;;;5006442;28;20215;-66
2023/12/03 10:02:54;;;;;;;24.17;13.93;;;;;;;;;;5006367;28;20202;-66
2023/12/03 10:05:22;;;;;;;21.52;13.43;;;;;;;;;;4978951;28;20207;-67
2023/12/03 10:07:50;;;;;;;25.30;15.82;;;;;;;;;;4984892;28;20221;-66
2023/12/03 10:10:21;;;;;;;20.25;14.13;;;;;;;;;;4991616;28;20207;-67
2023/12/03 10:12:50;;;;;;;19.23;15.40;;;;;;;;;;5031926;28;20207;-67
2023/12/03 10:15:19;;;;;;;24.17;16.10;;;;;;;;;;4992285;28;20661;-66
2023/12/03 10:17:47;;;;;;;23.90;15.65;;;;;;;;;;4993963;28;20210;-66
2023/12/03 10:20:21;;;;;;;21.35;15.13;;;;;;;;;;5051213;28;20214;-66
2023/12/03 10:22:50;;;;;;;19.67;13.70;;;;;;;;;;4974063;28;20195;-66
2023/12/03 10:25:30;;;;;;;18.77;14.15;;;;;;;;;;4999729;28;20216;-66
2023/12/03 10:27:58;;;;;;;23.13;15.07;;;;;;;;;;5030214;28;20263;-66
2023/12/03 10:30:27;;;;;;;19.05;14.10;;;;;;;;;;4979099;28;20206;-67
2023/12/03 10:32:55;;;;;;;18.35;13.85;;;;;;;;;;4973832;28;20221;-67
2023/12/03 10:35:24;;;;;;;22.55;15.38;;;;;;;;;;4975315;28;20219;-66
2023/12/03 10:37:52;;;;;;;17.80;14.20;;;;;;;;;;4973878;28;20211;-67
2023/12/03 10:40:21;;;;;;;25.17;18.13;;;;;;;;;;4973083;28;20292;-66
2023/12/03 10:42:50;;;;;;;19.85;14.77;;;;;;;;;;4991194;28;20194;-66
2023/12/03 10:45:19;;;;;;;25.02;16.40;;;;;;;;;;5011776;28;20233;-67
2023/12/03 10:47:47;;;;;;;23.20;16.58;;;;;;;;;;5022572;28;20198;-67
2023/12/03 10:50:15;;;;;;;22.60;17.98;;;;;;;;;;4998143;28;20210;-67
2023/12/03 10:52:43;;;;;;;22.13;18.58;;;;;;;;;;4989076;28;20203;-67
2023/12/03 10:55:12;;;;;;;21.77;17.88;;;;;;;;;;4989223;28;20236;-67
2023/12/03 10:57:44;;;;;;;25.35;18.15;;;;;;;;;;4992039;28;20680;-67
2023/12/03 11:00:18;;;;;;;21.05;17.65;;;;;;;;;;4984070;28;20199;-67
2023/12/03 11:02:47;;;;;;;20.55;18.35;;;;;;;;;;4995825;28;20591;-67
2023/12/03 11:05:20;;;;;;;23.70;20.40;;;;;;;;;;5089216;28;20199;-67
2023/12/03 11:07:48;;;;;;;24.50;19.67;;;;;;;;;;5094399;28;20190;-67
2023/12/03 11:10:17;;;;;;;22.90;17.98;;;;;;;;;;5007342;28;20357;-67
2023/12/03 11:12:46;;;;;;;19.30;17.23;;;;;;;;;;4991789;28;20203;-67
2023/12/03 11:15:15;;;;;;;21.55;18.83;;;;;;;;;;4991486;28;20947;-67
2023/12/03 11:17:45;;;;;;;25.17;19.63;;;;;;;;;;4991913;28;20211;-67
2023/12/03 11:20:19;;;;;;;23.20;18.25;;;;;;;;;;4991632;28;20267;-67
2023/12/03 11:22:53;;;;;;;19.63;17.58;;;;;;;;;;4991848;28;20201;-67
2023/12/03 11:25:25;;;;;;;22.52;17.75;;;;;;;;;;4996836;28;20191;-66
2023/12/03 11:27:53;;;;;;;24.35;19.40;;;;;;;;;;4988327;28;20194;-68
2023/12/03 11:30:37;;;;;;;21.58;18.88;;;;;;;;;;4980541;28;20216;-65
2023/12/03 11:33:09;;;;;;;21.80;19.65;;;;;;;;;;5010028;28;20198;-66
2023/12/03 11:35:40;;;;;;;22.30;18.65;;;;;;;;;;5007629;28;20190;-66
2023/12/03 11:38:10;;;;;;;21.15;19.05;;;;;;;;;;5009997;28;20187;-66
2023/12/03 11:40:38;;;;;;;19.08;17.13;;;;;;;;;;5000505;28;20236;-68
2023/12/03 11:43:23;;;;;;;20.65;18.55;;;;;;;;;;5004051;28;20199;-66
2023/12/03 11:45:51;;;;;;;21.80;19.15;;;;;;;;;;4992377;28;20262;-67
2023/12/03 11:48:22;;;;;;;20.60;18.55;;;;;;;;;;5006048;28;20206;-67
2023/12/03 11:50:51;;;;;;;20.60;18.58;;;;;;;;;;5008829;28;20237;-67
2023/12/03 11:53:25;;;;;;;19.95;18.13;;;;;;;;;;5010642;28;20660;-67
2023/12/03 11:55:54;;;;;;;21.20;19.08;;;;;;;;;;5004005;28;20198;-67
2023/12/03 11:58:22;;;;;;;21.85;19.75;;;;;;;;;;4986694;28;20200;-67
2023/12/03 12:00:51;;;;;;;28.45;21.35;;;;;;;;;;4998923;28;20210;-67
2023/12/03 12:03:20;;;;;;;22.42;20.10;;;;;;;;;;4992032;28;20809;-67
2023/12/03 12:05:49;;;;;;;22.25;20.05;;;;;;;;;;4989451;28;20218;-67
2023/12/03 12:08:19;;;;;;;21.00;19.20;;;;;;;;;;4990984;28;20199;-67
2023/12/03 12:10:48;;;;;;;20.83;18.83;;;;;;;;;;5008409;28;20218;-67
2023/12/03 12:13:17;;;;;;;21.30;19.20;;;;;;;;;;5007563;28;20205;-67
2023/12/03 12:15:45;;;;;;;21.95;19.90;;;;;;;;;;5010449;28;20208;-67
2023/12/03 12:18:13;;;;;;;20.92;18.98;;;;;;;;;;5009971;28;20630;-67
2023/12/03 12:20:43;;;;;;;21.13;19.33;;;;;;;;;;4992822;28;20207;-67
2023/12/03 12:23:11;;;;;;;28.02;23.80;;;;;;;;;;4989947;28;20214;-67
2023/12/03 12:25:39;;;;;;;23.35;21.15;;;;;;;;;;4990451;28;20233;-67
2023/12/03 12:28:07;;;;;;;22.65;20.45;;;;;;;;;;4991927;28;20202;-67
2023/12/03 12:30:36;;;;;;;22.05;20.02;;;;;;;;;;4990654;28;20229;-67
2023/12/03 12:33:05;;;;;;;25.40;22.90;;;;;;;;;;4988059;28;20201;-67
2023/12/03 12:35:33;;;;;;;24.27;21.77;;;;;;;;;;4998723;28;20225;-67
2023/12/03 12:38:03;;;;;;;22.00;20.05;;;;;;;;;;5008402;28;20224;-67
2023/12/03 12:40:32;;;;;;;24.95;22.50;;;;;;;;;;4990993;28;20242;-67
2023/12/03 12:43:07;;;;;;;22.75;20.70;;;;;;;;;;4987741;28;20203;-67
2023/12/03 12:45:36;;;;;;;23.75;21.45;;;;;;;;;;4967739;28;20203;-68
2023/12/03 12:48:04;;;;;;;22.98;20.52;;;;;;;;;;4974218;28;20210;-67
2023/12/03 12:50:33;;;;;;;23.77;21.48;;;;;;;;;;5008263;28;20240;-68
2023/12/03 12:53:03;;;;;;;23.63;21.13;;;;;;;;;;4998163;28;20211;-68
2023/12/03 12:55:32;;;;;;;23.65;21.38;;;;;;;;;;5000495;28;20197;-68
2023/12/03 12:58:01;;;;;;;22.52;20.30;;;;;;;;;;4989066;28;21089;-68
2023/12/03 13:00:29;;;;;;;22.77;20.67;;;;;;;;;;4987423;28;20210;-68
2023/12/03 13:02:58;;;;;;;23.25;20.75;;;;;;;;;;4989378;28;20251;-68
2023/12/03 13:05:26;;;;;;;23.67;20.70;;;;;;;;;;4992850;28;20194;-68
2023/12/03 13:07:55;;;;;;;25.50;23.10;;;;;;;;;;5001977;28;20212;-68
2023/12/03 13:10:25;;;;;;;22.58;20.42;;;;;;;;;;5011592;28;20223;-68
2023/12/03 13:12:53;;;;;;;26.88;21.45;;;;;;;;;;4988272;28;20204;-67
2023/12/03 13:15:21;;;;;;;24.48;22.02;;;;;;;;;;5012223;28;20210;-68
2023/12/03 13:17:51;;;;;;;24.10;21.80;;;;;;;;;;5010445;28;20209;-67
2023/12/03 13:20:19;;;;;;;21.38;19.17;;;;;;;;;;5007903;28;20203;-67
2023/12/03 13:22:49;;;;;;;22.27;19.80;;;;;;;;;;5003749;28;20567;-67
2023/12/03 13:25:19;;;;;;;27.00;22.15;;;;;;;;;;5005412;28;20547;-67
2023/12/03 13:27:49;;;;;;;25.63;19.90;;;;;;;;;;4996657;28;20576;-67
2023/12/03 13:30:17;;;;;;;41.17;27.50;;;;;;;;;;4994121;28;20279;-67
2023/12/03 13:32:46;;;;;;;29.25;22.90;;;;;;;;;;4993279;28;20210;-68
2023/12/03 13:35:15;;;;;;;19.88;17.77;;;;;;;;;;4991017;28;20206;-67
2023/12/03 13:37:43;;;;;;;19.55;17.45;;;;;;;;;;5012801;28;20230;-66
2023/12/03 13:40:12;;;;;;;21.92;19.63;;;;;;;;;;5033268;28;20260;-66
2023/12/03 13:42:40;;;;;;;20.27;17.35;;;;;;;;;;5025155;28;20248;-65
2023/12/03 13:45:10;;;;;;;22.25;17.77;;;;;;;;;;5023316;28;20245;-66
2023/12/03 13:47:38;;;;;;;18.95;17.02;;;;;;;;;;5015560;28;20226;-65
2023/12/03 13:50:07;;;;;;;32.38;22.30;;;;;;;;;;5017644;28;20233;-66
2023/12/03 13:52:35;;;;;;;33.20;22.63;;;;;;;;;;5033817;28;20190;-66
2023/12/03 13:55:04;;;;;;;22.10;16.80;;;;;;;;;;5023237;28;20230;-66
2023/12/03 13:57:33;;;;;;;40.63;25.92;;;;;;;;;;5009326;28;20242;-65
2023/12/03 14:00:01;;;;;;;31.65;21.08;;;;;;;;;;5024275;28;20229;-65
2023/12/03 14:02:31;;;;;;;23.00;18.65;;;;;;;;;;5005763;28;20202;-66
2023/12/03 14:04:59;;;;;;;41.03;25.73;;;;;;;;;;5020883;28;20226;-65
2023/12/03 14:07:28;;;;;;;28.10;20.25;;;;;;;;;;5011274;28;20242;-65
2023/12/03 14:09:56;;;;;;;34.53;21.67;;;;;;;;;;5001049;28;20231;-66
2023/12/03 14:12:25;;;;;;;17.55;15.68;;;;;;;;;;5009467;28;20279;-65
2023/12/03 14:14:53;;;;;;;20.45;18.17;;;;;;;;;;5014017;28;20245;-66
2023/12/03 14:17:22;;;;;;;23.67;21.05;;;;;;;;;;4999955;28;20238;-66
2023/12/03 14:19:51;;;;;;;21.33;18.98;;;;;;;;;;5016689;28;20672;-65
2023/12/03 14:22:19;;;;;;;48.67;29.83;;;;;;;;;;5012748;28;20227;-66
2023/12/03 14:24:48;;;;;;;31.73;24.38;;;;;;;;;;5014008;28;20226;-66